Sal, Cape Verde
Current Conditions -  °F | °C
As of 6:00 PM on Friday 28 Nov 2014 (Local Time) from GVAC Reporting Station
Broken Clouds Broken Clouds  
Wind Chill: 75°   Ceiling: 1500
Heat Index: 75°   Visibility: 6mi
Dew Point: 57°   Wind: 12mph
Humidity: 53%   Direction: 10°N
Pressure: 29.91"   Gusts: NA
Location:  16.72°N, 22.93°W
Report Text: GVAC 281900Z 01010KT 9999 BKN015 24/14 Q1013 NOSIG
Loading
Personal Weather Stations






























Interactive Weather Map New forecast layout! Learn more

10-Day Weather Forecast

Advertisements
Track Severe Weather on mobile